createdAt,value
2018-05-17T00:00:37.708Z,90.91
2018-05-17T00:03:05.267Z,90.90
2018-05-17T00:05:32.782Z,90.74
2018-05-17T00:08:00.337Z,90.80
2018-05-17T00:10:27.878Z,90.78
2018-05-17T00:12:55.383Z,90.89
2018-05-17T00:15:22.942Z,90.93
2018-05-17T00:17:50.494Z,90.71
2018-05-17T00:20:18.008Z,90.49
2018-05-17T00:22:45.553Z,90.41
2018-05-17T00:25:13.059Z,90.42
2018-05-17T00:27:40.610Z,90.55
2018-05-17T00:30:08.148Z,90.57
2018-05-17T00:32:35.735Z,90.67
2018-05-17T00:35:03.251Z,90.78
2018-05-17T00:37:30.790Z,90.85
2018-05-17T00:39:58.312Z,90.84
2018-05-17T00:42:25.852Z,91.01
2018-05-17T00:44:53.392Z,90.77
2018-05-17T00:47:20.945Z,90.65
2018-05-17T00:49:48.461Z,90.52
2018-05-17T00:52:15.998Z,90.49
2018-05-17T00:54:43.555Z,90.37
2018-05-17T00:57:11.093Z,90.30
2018-05-17T00:59:38.632Z,90.40
2018-05-17T01:02:06.172Z,90.25
2018-05-17T01:04:33.702Z,90.23
2018-05-17T01:07:01.244Z,90.36
2018-05-17T01:09:28.766Z,90.24
2018-05-17T01:11:56.342Z,90.16
2018-05-17T01:14:23.885Z,90.14
2018-05-17T01:16:51.390Z,90.12
2018-05-17T01:19:18.916Z,89.99
2018-05-17T01:21:46.453Z,90.33
2018-05-17T01:24:13.992Z,90.33
2018-05-17T01:26:41.523Z,90.15
2018-05-17T01:29:09.045Z,90.06
2018-05-17T01:31:36.606Z,90.35
2018-05-17T01:34:04.115Z,90.31
2018-05-17T01:36:31.633Z,90.49
2018-05-17T01:38:59.170Z,90.65
2018-05-17T01:41:27.306Z,90.47
2018-05-17T01:43:54.839Z,90.65
2018-05-17T01:46:22.354Z,90.71
2018-05-17T01:48:49.893Z,90.81
2018-05-17T01:51:17.443Z,90.87
2018-05-17T01:53:44.997Z,91.02
2018-05-17T01:56:12.649Z,90.98
2018-05-17T01:58:40.175Z,90.99
2018-05-17T02:01:07.724Z,90.95
2018-05-17T02:03:35.261Z,91.05
2018-05-17T02:06:02.762Z,90.93
2018-05-17T02:08:30.304Z,91.17
2018-05-17T02:10:57.831Z,91.20
2018-05-17T02:13:25.350Z,91.27
2018-05-17T02:15:52.887Z,91.35
2018-05-17T02:18:20.422Z,91.33
2018-05-17T02:20:47.974Z,91.42
2018-05-17T02:23:15.465Z,91.42
2018-05-17T02:25:42.991Z,91.41
2018-05-17T02:28:10.543Z,91.45
2018-05-17T02:30:38.053Z,91.41
2018-05-17T02:33:05.578Z,91.42
2018-05-17T02:35:33.098Z,91.35
2018-05-17T02:38:00.606Z,91.47
2018-05-17T02:40:28.198Z,91.57
2018-05-17T02:42:55.695Z,91.69
2018-05-17T02:45:23.226Z,91.31
2018-05-17T02:47:50.737Z,91.11
2018-05-17T02:50:18.241Z,91.08
2018-05-17T02:52:45.832Z,90.80
2018-05-17T02:55:13.380Z,90.76
2018-05-17T02:57:40.930Z,90.82
2018-05-17T03:00:08.442Z,90.66
2018-05-17T03:02:35.969Z,90.68
2018-05-17T03:05:03.507Z,90.54
2018-05-17T03:07:31.119Z,90.45
2018-05-17T03:09:58.650Z,90.21
2018-05-17T03:12:26.167Z,90.35
2018-05-17T03:14:53.680Z,90.35
2018-05-17T03:17:21.216Z,90.20
2018-05-17T03:19:48.718Z,90.06
2018-05-17T03:22:16.254Z,90.03
2018-05-17T03:24:43.768Z,90.18
2018-05-17T03:27:11.313Z,90.24
2018-05-17T03:29:38.825Z,90.35
2018-05-17T03:32:06.321Z,90.19
2018-05-17T03:34:33.907Z,90.14
2018-05-17T03:37:01.416Z,90.04
2018-05-17T03:39:28.939Z,89.87
2018-05-17T03:41:56.527Z,90.06
2018-05-17T03:44:24.067Z,90.22
2018-05-17T03:46:51.611Z,89.93
2018-05-17T03:49:19.151Z,89.82
2018-05-17T03:51:46.649Z,90.06
2018-05-17T03:54:14.186Z,89.69
2018-05-17T03:56:41.701Z,89.54
2018-05-17T03:59:09.245Z,89.76
2018-05-17T04:04:50.359Z,89.21
2018-05-17T04:07:17.918Z,89.08
2018-05-17T04:09:45.438Z,88.85
2018-05-17T04:12:13.014Z,88.76
2018-05-17T04:14:40.527Z,88.95
2018-05-17T04:17:08.088Z,88.92
2018-05-17T04:19:35.606Z,88.77
2018-05-17T04:22:03.121Z,88.66
2018-05-17T04:24:30.715Z,88.36
2018-05-17T04:26:58.247Z,88.42
2018-05-17T04:29:25.798Z,88.80
2018-05-17T04:31:53.318Z,88.18
2018-05-17T04:34:20.833Z,88.31
2018-05-17T04:36:48.361Z,87.72
2018-05-17T04:39:15.877Z,87.37
2018-05-17T04:41:43.405Z,87.23
2018-05-17T04:44:10.995Z,87.04
2018-05-17T04:46:38.534Z,86.34
2018-05-17T04:49:06.079Z,85.95
2018-05-17T04:51:33.667Z,85.32
2018-05-17T04:54:01.161Z,85.19
2018-05-17T04:56:28.690Z,85.11
2018-05-17T04:58:56.203Z,84.71
2018-05-17T05:01:23.735Z,84.80
2018-05-17T05:03:51.263Z,84.83
2018-05-17T05:06:18.806Z,84.57
2018-05-17T05:08:46.317Z,84.87
2018-05-17T05:11:13.838Z,84.86
2018-05-17T05:13:41.367Z,84.98
2018-05-17T05:16:08.889Z,85.50
2018-05-17T05:18:36.434Z,85.54
2018-05-17T05:21:03.934Z,85.33
2018-05-17T05:23:31.450Z,84.63
2018-05-17T05:25:59.011Z,84.47
2018-05-17T05:28:26.508Z,84.63
2018-05-17T05:30:54.080Z,84.80
2018-05-17T05:33:21.637Z,85.33
2018-05-17T05:35:49.157Z,85.40
2018-05-17T05:38:16.743Z,86.29
2018-05-17T05:40:44.258Z,85.66
2018-05-17T05:43:11.771Z,85.02
2018-05-17T05:45:39.386Z,85.08
2018-05-17T05:48:06.931Z,85.01
2018-05-17T05:50:34.455Z,84.67
2018-05-17T05:53:02.002Z,84.23
2018-05-17T05:55:29.522Z,84.04
2018-05-17T05:57:57.019Z,84.80
2018-05-17T06:00:24.555Z,84.35
2018-05-17T06:02:52.087Z,85.31
2018-05-17T06:05:19.678Z,85.25
2018-05-17T06:07:47.235Z,84.62
2018-05-17T06:10:14.819Z,84.78
2018-05-17T06:12:42.468Z,84.17
2018-05-17T06:15:10.001Z,83.70
2018-05-17T06:17:37.562Z,83.87
2018-05-17T06:20:05.116Z,83.92
2018-05-17T06:22:32.633Z,84.54
2018-05-17T06:25:00.167Z,83.81
2018-05-17T06:27:27.670Z,83.99
2018-05-17T06:29:55.200Z,83.96
2018-05-17T06:32:22.716Z,83.49
2018-05-17T06:34:50.250Z,83.30
2018-05-17T06:37:17.813Z,82.59
2018-05-17T06:39:45.331Z,82.74
2018-05-17T06:42:12.883Z,82.35
2018-05-17T06:44:40.457Z,81.81
2018-05-17T06:47:07.955Z,81.97
2018-05-17T06:49:35.546Z,81.84
2018-05-17T06:52:03.086Z,82.17
2018-05-17T06:54:30.681Z,81.70
2018-05-17T06:56:58.312Z,81.70
2018-05-17T06:59:25.835Z,81.11
2018-05-17T07:01:53.451Z,81.37
2018-05-17T07:04:20.965Z,81.06
2018-05-17T07:06:48.519Z,80.86
2018-05-17T07:09:16.033Z,80.69
2018-05-17T07:11:43.548Z,81.10
2018-05-17T07:14:11.069Z,79.73
2018-05-17T07:16:38.940Z,80.90
2018-05-17T07:19:06.506Z,80.85
2018-05-17T07:21:34.265Z,79.65
2018-05-17T07:24:01.852Z,79.02
2018-05-17T07:26:29.391Z,78.48
2018-05-17T07:28:56.921Z,78.78
2018-05-17T07:31:24.560Z,78.26
2018-05-17T07:33:52.110Z,78.53
2018-05-17T07:36:19.699Z,78.14
2018-05-17T07:38:47.553Z,77.61
2018-05-17T07:41:15.173Z,77.38
2018-05-17T07:43:42.773Z,77.60
2018-05-17T07:46:10.350Z,77.48
2018-05-17T07:48:37.885Z,76.91
2018-05-17T07:51:05.412Z,76.67
2018-05-17T07:53:32.908Z,76.80
2018-05-17T07:56:00.425Z,77.30
2018-05-17T07:58:27.937Z,76.46
2018-05-17T08:00:55.438Z,76.27
2018-05-17T08:03:22.970Z,74.98
2018-05-17T08:05:50.477Z,74.53
2018-05-17T08:08:17.988Z,73.30
2018-05-17T08:10:45.490Z,73.86
2018-05-17T08:13:12.985Z,73.56
2018-05-17T08:15:40.493Z,74.28
2018-05-17T08:18:07.977Z,73.33
2018-05-17T08:20:35.501Z,73.07
2018-05-17T08:23:02.998Z,72.53
2018-05-17T08:25:30.492Z,72.66
2018-05-17T08:27:58.030Z,71.17
2018-05-17T08:30:26.422Z,69.57
2018-05-17T08:32:53.942Z,71.05
2018-05-17T08:35:21.437Z,72.39
2018-05-17T08:37:48.936Z,71.56
2018-05-17T08:40:16.507Z,70.51
2018-05-17T08:42:44.074Z,71.83
2018-05-17T08:45:11.540Z,71.04
2018-05-17T08:47:39.034Z,71.15
2018-05-17T08:50:06.526Z,72.25
2018-05-17T08:52:34.038Z,71.67
2018-05-17T08:55:01.539Z,70.94
2018-05-17T08:57:29.070Z,69.98
2018-05-17T08:59:56.575Z,71.12
2018-05-17T09:02:24.240Z,70.95
2018-05-17T09:04:51.758Z,70.26
2018-05-17T09:07:19.263Z,69.27
2018-05-17T09:09:46.780Z,68.24
2018-05-17T09:12:14.795Z,64.95
2018-05-17T09:14:42.308Z,62.46
2018-05-17T09:17:09.817Z,60.32
2018-05-17T09:19:37.308Z,60.16
2018-05-17T09:22:04.830Z,58.22
2018-05-17T09:24:32.326Z,61.63
2018-05-17T09:26:59.835Z,61.91
2018-05-17T09:29:27.359Z,60.11
2018-05-17T09:31:54.867Z,60.35
2018-05-17T09:34:22.385Z,60.30
2018-05-17T09:36:49.882Z,54.98
2018-05-17T09:39:17.404Z,53.92
2018-05-17T09:41:44.930Z,50.27
2018-05-17T09:44:12.423Z,47.59
2018-05-17T09:46:39.955Z,49.69
2018-05-17T09:49:07.453Z,52.02
2018-05-17T09:51:34.945Z,52.96
2018-05-17T09:54:02.462Z,56.23
2018-05-17T09:56:29.955Z,58.01
2018-05-17T09:58:57.490Z,59.13
2018-05-17T10:01:24.993Z,60.36
2018-05-17T10:03:52.482Z,60.41
2018-05-17T10:06:20.048Z,61.07
2018-05-17T10:08:47.534Z,61.48
2018-05-17T10:11:15.073Z,62.27
2018-05-17T10:13:42.572Z,65.22
2018-05-17T10:16:10.075Z,65.82
2018-05-17T10:18:37.603Z,66.86
2018-05-17T10:21:05.088Z,66.83
2018-05-17T10:23:32.611Z,65.73
2018-05-17T10:26:00.106Z,65.52
2018-05-17T10:28:27.597Z,65.94
2018-05-17T10:30:55.111Z,65.10
2018-05-17T10:33:22.619Z,65.02
2018-05-17T10:35:50.134Z,65.30
2018-05-17T10:38:17.627Z,66.10
2018-05-17T10:40:45.130Z,67.45
2018-05-17T10:43:12.652Z,67.90
2018-05-17T10:45:40.145Z,68.25
2018-05-17T10:48:07.667Z,69.65
2018-05-17T10:50:35.170Z,71.53
2018-05-17T10:53:02.685Z,74.83
2018-05-17T10:55:31.122Z,79.06
2018-05-17T10:57:58.623Z,79.64
2018-05-17T11:00:26.141Z,80.54
2018-05-17T11:02:54.558Z,81.09
2018-05-17T11:05:22.051Z,79.95
2018-05-17T11:07:49.575Z,79.45
2018-05-17T11:10:17.074Z,79.52
2018-05-17T11:12:45.553Z,79.91
2018-05-17T11:15:13.094Z,80.77
2018-05-17T11:17:40.553Z,80.69
2018-05-17T11:20:08.079Z,79.92
2018-05-17T11:22:35.577Z,79.81
2018-05-17T11:25:03.098Z,80.07
2018-05-17T11:27:30.595Z,80.92
2018-05-17T11:29:58.086Z,80.59
2018-05-17T11:32:25.601Z,80.07
2018-05-17T11:34:53.109Z,79.70
2018-05-17T11:37:20.626Z,78.80
2018-05-17T11:39:48.117Z,77.81
2018-05-17T11:42:15.641Z,76.40
2018-05-17T11:44:43.162Z,74.50
2018-05-17T11:47:10.658Z,72.70
2018-05-17T11:49:38.181Z,70.32
2018-05-17T11:52:05.677Z,70.05
2018-05-17T11:54:33.160Z,67.89
2018-05-17T11:57:00.678Z,67.07
2018-05-17T11:59:28.172Z,67.99
2018-05-17T12:01:55.694Z,68.39
2018-05-17T12:04:23.191Z,67.46
2018-05-17T12:06:50.697Z,65.71
2018-05-17T12:09:18.208Z,63.96
2018-05-17T12:11:45.781Z,64.08
2018-05-17T12:14:13.339Z,63.17
2018-05-17T12:16:41.734Z,62.08
2018-05-17T12:19:09.398Z,60.57
2018-05-17T12:21:36.909Z,60.26
2018-05-17T12:24:04.410Z,60.20
2018-05-17T12:26:31.949Z,60.15
2018-05-17T12:28:59.446Z,59.80
2018-05-17T12:31:26.944Z,58.76
2018-05-17T12:33:54.469Z,58.57
2018-05-17T12:36:21.969Z,58.61
2018-05-17T12:38:49.513Z,59.33
2018-05-17T12:41:17.042Z,57.76
2018-05-17T12:43:45.555Z,58.12
2018-05-17T12:46:13.071Z,58.38
2018-05-17T12:48:40.587Z,57.22
2018-05-17T12:51:08.145Z,56.27
2018-05-17T12:53:35.671Z,56.12
2018-05-17T12:56:03.171Z,55.71
2018-05-17T12:58:30.730Z,55.78
2018-05-17T13:03:32.330Z,54.73
2018-05-17T13:05:59.899Z,53.85
2018-05-17T13:08:27.401Z,54.10
2018-05-17T13:10:54.926Z,55.68
2018-05-17T13:13:22.423Z,55.90
2018-05-17T13:15:50.919Z,56.81
2018-05-17T13:18:18.418Z,56.04
2018-05-17T13:20:45.913Z,55.80
2018-05-17T13:23:13.427Z,56.30
2018-05-17T13:25:40.933Z,56.57
2018-05-17T13:28:08.454Z,53.96
2018-05-17T13:30:35.947Z,54.78
2018-05-17T13:33:03.446Z,55.72
2018-05-17T13:35:30.965Z,54.93
2018-05-17T13:37:58.458Z,54.04
2018-05-17T13:40:25.986Z,54.29
2018-05-17T13:42:53.487Z,53.01
2018-05-17T13:45:20.983Z,52.86
2018-05-17T13:47:48.626Z,52.33
2018-05-17T13:50:16.085Z,52.57
2018-05-17T13:52:43.618Z,53.52
2018-05-17T13:55:11.125Z,52.48
2018-05-17T13:57:39.230Z,52.52
2018-05-17T14:00:06.756Z,52.02
2018-05-17T14:02:34.435Z,51.88
2018-05-17T14:05:01.805Z,51.72
2018-05-17T14:07:29.296Z,51.80
2018-05-17T14:09:56.797Z,52.65
2018-05-17T14:12:24.324Z,51.89
2018-05-17T14:14:51.813Z,52.65
2018-05-17T14:17:19.329Z,52.58
2018-05-17T14:19:46.822Z,51.66
2018-05-17T14:22:14.321Z,51.62
2018-05-17T14:24:41.843Z,52.07
2018-05-17T14:27:09.350Z,51.78
2018-05-17T14:29:36.877Z,52.01
2018-05-17T14:32:04.389Z,52.92
2018-05-17T14:34:31.880Z,53.86
2018-05-17T14:36:59.413Z,54.55
2018-05-17T14:39:26.912Z,55.07
2018-05-17T14:41:54.433Z,53.94
2018-05-17T14:44:21.925Z,54.94
2018-05-17T14:46:49.435Z,55.30
2018-05-17T14:49:16.953Z,55.78
2018-05-17T14:51:44.453Z,56.33
2018-05-17T14:54:11.973Z,55.68
2018-05-17T14:56:39.467Z,56.13
2018-05-17T18:58:01.214Z,76.05
2018-05-17T19:00:28.746Z,76.33
2018-05-17T19:02:56.246Z,76.31
2018-05-17T19:05:23.743Z,76.62
2018-05-17T19:07:51.257Z,76.79
2018-05-17T19:10:19.008Z,76.99
2018-05-17T19:12:46.658Z,77.23
2018-05-17T19:15:14.162Z,77.56
2018-05-17T19:17:41.655Z,77.78
2018-05-17T19:20:09.177Z,78.09
2018-05-17T19:22:36.682Z,78.52
2018-05-17T19:25:04.212Z,78.42
2018-05-17T19:27:31.748Z,78.61
2018-05-17T19:29:59.257Z,79.03
2018-05-17T19:32:26.888Z,79.17
2018-05-17T19:34:54.516Z,79.03
2018-05-17T19:37:22.060Z,79.54
2018-05-17T19:39:49.576Z,79.72
2018-05-17T19:42:17.075Z,79.50
2018-05-17T19:44:44.603Z,79.40
2018-05-17T19:47:12.173Z,79.61
2018-05-17T19:49:39.751Z,79.85
2018-05-17T19:52:07.240Z,80.00
2018-05-17T19:54:34.750Z,80.61
2018-05-17T19:57:02.266Z,81.41
2018-05-17T19:59:29.785Z,81.98
2018-05-17T20:01:57.319Z,82.42
2018-05-17T20:04:24.833Z,82.79
2018-05-17T20:06:52.342Z,83.23
2018-05-17T20:09:19.868Z,83.57
2018-05-17T20:11:47.379Z,83.89
2018-05-17T20:14:14.908Z,84.20
2018-05-17T20:16:42.453Z,84.50
2018-05-17T20:19:10.002Z,84.79
2018-05-17T20:21:37.513Z,85.03
2018-05-17T20:24:05.046Z,85.27
2018-05-17T20:26:32.559Z,85.42
2018-05-17T20:29:00.061Z,85.80
2018-05-17T20:31:27.580Z,85.97
2018-05-17T20:33:55.142Z,86.04
2018-05-17T20:36:22.702Z,86.17
2018-05-17T20:38:50.478Z,86.30
2018-05-17T20:41:18.039Z,86.36
2018-05-17T20:43:45.591Z,86.41
2018-05-17T20:46:13.145Z,86.52
2018-05-17T20:48:40.688Z,86.60
2018-05-17T20:51:08.267Z,86.65
2018-05-17T20:53:35.809Z,86.87
2018-05-17T20:56:03.377Z,87.07
2018-05-17T20:58:33.497Z,87.13
2018-05-17T21:01:01.073Z,87.11
2018-05-17T21:03:28.598Z,87.27
2018-05-17T21:05:56.162Z,87.29
2018-05-17T21:08:24.141Z,87.36
2018-05-17T21:10:51.701Z,87.50
2018-05-17T21:13:19.227Z,87.65
2018-05-17T21:15:46.785Z,87.75
2018-05-17T21:18:14.308Z,87.87
2018-05-17T21:20:41.832Z,87.83
2018-05-17T21:23:09.388Z,87.72
2018-05-17T21:25:36.934Z,87.66
2018-05-17T21:28:04.557Z,87.85
2018-05-17T21:30:32.078Z,88.01
2018-05-17T21:32:59.671Z,88.18
2018-05-17T21:35:27.264Z,88.56
2018-05-17T21:37:54.797Z,88.78
2018-05-17T21:40:22.407Z,88.92
2018-05-17T21:42:49.937Z,89.08
2018-05-17T21:45:17.673Z,89.30
2018-05-17T21:47:45.269Z,89.35
2018-05-17T21:50:12.814Z,89.67
2018-05-17T21:52:40.383Z,89.98
2018-05-17T21:55:07.932Z,89.96
2018-05-17T21:57:35.484Z,90.00
2018-05-17T22:00:03.029Z,89.98
2018-05-17T22:02:30.637Z,89.90
2018-05-17T22:04:58.226Z,89.94
2018-05-17T22:07:25.798Z,89.91
2018-05-17T22:09:53.347Z,89.90
2018-05-17T22:12:20.927Z,89.90
2018-05-17T22:14:48.462Z,89.82
2018-05-17T22:17:16.007Z,89.64
2018-05-17T22:19:43.579Z,89.65
2018-05-17T22:22:12.185Z,89.67
2018-05-17T22:24:39.763Z,89.71
2018-05-17T22:27:07.351Z,89.76
2018-05-17T22:29:34.946Z,89.62
2018-05-17T22:32:02.493Z,89.62
2018-05-17T22:34:30.082Z,89.54
2018-05-17T22:36:57.650Z,89.42
2018-05-17T22:39:25.207Z,89.32
2018-05-17T22:41:52.818Z,89.20
2018-05-17T22:44:20.377Z,89.17
2018-05-17T22:46:47.918Z,89.12
2018-05-17T22:49:16.533Z,89.01
2018-05-17T22:51:44.116Z,88.98
2018-05-17T22:54:13.382Z,88.88
2018-05-17T22:56:52.789Z,88.93
2018-05-17T22:59:20.364Z,89.03
2018-05-17T23:01:47.913Z,89.13
2018-05-17T23:04:15.447Z,89.15
2018-05-17T23:06:43.049Z,89.24
2018-05-17T23:09:10.595Z,89.41
2018-05-17T23:11:38.112Z,89.47
2018-05-17T23:14:06.127Z,89.72
2018-05-17T23:16:33.666Z,89.93
2018-05-17T23:19:01.203Z,90.18
2018-05-17T23:21:28.759Z,90.53
2018-05-17T23:23:56.347Z,90.79
2018-05-17T23:26:24.557Z,90.85
2018-05-17T23:28:52.724Z,90.94
2018-05-17T23:31:20.289Z,91.09
2018-05-17T23:33:47.841Z,91.18
2018-05-17T23:36:15.418Z,91.35
2018-05-17T23:38:42.965Z,91.45
2018-05-17T23:41:22.221Z,91.66
2018-05-17T23:43:49.770Z,91.78
2018-05-17T23:46:17.313Z,91.95
2018-05-17T23:48:44.857Z,92.05
2018-05-17T23:51:12.389Z,92.15
2018-05-17T23:53:39.939Z,92.10
2018-05-17T23:56:07.479Z,92.20
2018-05-17T23:58:35.035Z,92.32
